sensor_id;sensor_type;location;lat;lon;timestamp;P1;durP1;ratioP1;P2;durP2;ratioP2
77026;SDS011;65956;52.986;17.490;2024-01-11T00:00:36;19.90;;;9.50;;
77026;SDS011;65956;52.986;17.490;2024-01-11T00:03:22;24.40;;;9.00;;
77026;SDS011;65956;52.986;17.490;2024-01-11T00:05:48;28.70;;;10.70;;
77026;SDS011;65956;52.986;17.490;2024-01-11T00:08:14;17.30;;;7.30;;
77026;SDS011;65956;52.986;17.490;2024-01-11T00:10:40;21.50;;;8.60;;
77026;SDS011;65956;52.986;17.490;2024-01-11T00:13:06;21.80;;;7.20;;
77026;SDS011;65956;52.986;17.490;2024-01-11T00:15:32;15.80;;;6.30;;
77026;SDS011;65956;52.986;17.490;2024-01-11T00:17:58;19.20;;;6.70;;
77026;SDS011;65956;52.986;17.490;2024-01-11T00:20:24;18.00;;;6.20;;
77026;SDS011;65956;52.986;17.490;2024-01-11T00:22:51;14.90;;;5.70;;
77026;SDS011;65956;52.986;17.490;2024-01-11T00:25:17;20.20;;;7.20;;
77026;SDS011;65956;52.986;17.490;2024-01-11T00:27:43;17.50;;;6.50;;
77026;SDS011;65956;52.986;17.490;2024-01-11T00:30:09;17.30;;;6.40;;
77026;SDS011;65956;52.986;17.490;2024-01-11T00:32:35;14.60;;;5.70;;
77026;SDS011;65956;52.986;17.490;2024-01-11T00:35:01;17.70;;;7.30;;
77026;SDS011;65956;52.986;17.490;2024-01-11T00:37:27;15.20;;;5.80;;
77026;SDS011;65956;52.986;17.490;2024-01-11T00:39:53;18.40;;;7.00;;
77026;SDS011;65956;52.986;17.490;2024-01-11T00:42:19;18.90;;;7.00;;
77026;SDS011;65956;52.986;17.490;2024-01-11T00:44:45;15.90;;;6.30;;
77026;SDS011;65956;52.986;17.490;2024-01-11T00:47:11;18.50;;;7.00;;
77026;SDS011;65956;52.986;17.490;2024-01-11T00:49:38;18.80;;;6.80;;
77026;SDS011;65956;52.986;17.490;2024-01-11T00:52:04;20.90;;;9.30;;
77026;SDS011;65956;52.986;17.490;2024-01-11T00:54:30;19.70;;;8.40;;
77026;SDS011;65956;52.986;17.490;2024-01-11T00:56:56;20.90;;;8.10;;
77026;SDS011;65956;52.986;17.490;2024-01-11T00:59:22;20.20;;;8.60;;
77026;SDS011;65956;52.986;17.490;2024-01-11T01:01:48;21.40;;;8.20;;
77026;SDS011;65956;52.986;17.490;2024-01-11T01:04:16;25.00;;;9.40;;
77026;SDS011;65956;52.986;17.490;2024-01-11T01:06:42;22.40;;;7.60;;
77026;SDS011;65956;52.986;17.490;2024-01-11T01:09:09;18.20;;;7.10;;
77026;SDS011;65956;52.986;17.490;2024-01-11T01:11:35;17.00;;;7.20;;
77026;SDS011;65956;52.986;17.490;2024-01-11T01:14:01;17.60;;;6.90;;
77026;SDS011;65956;52.986;17.490;2024-01-11T01:16:27;21.30;;;7.80;;
77026;SDS011;65956;52.986;17.490;2024-01-11T01:18:53;17.40;;;6.30;;
77026;SDS011;65956;52.986;17.490;2024-01-11T01:21:19;16.60;;;6.90;;
77026;SDS011;65956;52.986;17.490;2024-01-11T01:23:45;19.60;;;7.10;;
77026;SDS011;65956;52.986;17.490;2024-01-11T01:26:11;17.20;;;7.50;;
77026;SDS011;65956;52.986;17.490;2024-01-11T01:28:38;19.20;;;7.40;;
77026;SDS011;65956;52.986;17.490;2024-01-11T01:31:05;20.40;;;7.40;;
77026;SDS011;65956;52.986;17.490;2024-01-11T01:33:32;21.00;;;7.70;;
77026;SDS011;65956;52.986;17.490;2024-01-11T01:35:58;18.40;;;7.30;;
77026;SDS011;65956;52.986;17.490;2024-01-11T01:38:24;21.00;;;8.40;;
77026;SDS011;65956;52.986;17.490;2024-01-11T01:40:50;23.60;;;8.90;;
77026;SDS011;65956;52.986;17.490;2024-01-11T01:43:16;18.20;;;7.00;;
77026;SDS011;65956;52.986;17.490;2024-01-11T01:45:42;16.90;;;6.30;;
77026;SDS011;65956;52.986;17.490;2024-01-11T01:48:08;17.00;;;6.40;;
77026;SDS011;65956;52.986;17.490;2024-01-11T01:50:34;19.60;;;7.20;;
77026;SDS011;65956;52.986;17.490;2024-01-11T01:53:00;24.00;;;8.20;;
77026;SDS011;65956;52.986;17.490;2024-01-11T01:55:27;21.20;;;8.80;;
77026;SDS011;65956;52.986;17.490;2024-01-11T01:57:54;31.20;;;9.80;;
77026;SDS011;65956;52.986;17.490;2024-01-11T02:00:21;21.90;;;7.80;;
77026;SDS011;65956;52.986;17.490;2024-01-11T02:02:50;22.70;;;7.80;;
77026;SDS011;65956;52.986;17.490;2024-01-11T02:05:18;23.80;;;7.90;;
77026;SDS011;65956;52.986;17.490;2024-01-11T02:07:44;21.90;;;8.40;;
77026;SDS011;65956;52.986;17.490;2024-01-11T02:10:11;20.20;;;7.00;;
77026;SDS011;65956;52.986;17.490;2024-01-11T02:12:38;21.90;;;8.00;;
77026;SDS011;65956;52.986;17.490;2024-01-11T02:15:05;17.70;;;6.90;;
77026;SDS011;65956;52.986;17.490;2024-01-11T02:17:32;24.40;;;7.70;;
77026;SDS011;65956;52.986;17.490;2024-01-11T02:19:58;23.30;;;8.60;;
77026;SDS011;65956;52.986;17.490;2024-01-11T02:22:35;19.60;;;7.90;;
77026;SDS011;65956;52.986;17.490;2024-01-11T02:25:03;18.70;;;7.10;;
77026;SDS011;65956;52.986;17.490;2024-01-11T02:27:30;18.40;;;6.70;;
77026;SDS011;65956;52.986;17.490;2024-01-11T02:29:56;19.80;;;7.10;;
77026;SDS011;65956;52.986;17.490;2024-01-11T02:32:22;22.60;;;8.80;;
77026;SDS011;65956;52.986;17.490;2024-01-11T02:34:49;20.50;;;8.20;;
77026;SDS011;65956;52.986;17.490;2024-01-11T02:37:15;23.30;;;8.40;;
77026;SDS011;65956;52.986;17.490;2024-01-11T02:39:42;22.50;;;7.50;;
77026;SDS011;65956;52.986;17.490;2024-01-11T02:42:09;22.10;;;7.20;;
77026;SDS011;65956;52.986;17.490;2024-01-11T02:44:35;26.60;;;9.40;;
77026;SDS011;65956;52.986;17.490;2024-01-11T02:47:02;27.10;;;9.10;;
77026;SDS011;65956;52.986;17.490;2024-01-11T02:49:29;15.70;;;6.20;;
77026;SDS011;65956;52.986;17.490;2024-01-11T02:51:55;22.60;;;7.70;;
77026;SDS011;65956;52.986;17.490;2024-01-11T02:54:21;21.90;;;7.80;;
77026;SDS011;65956;52.986;17.490;2024-01-11T02:56:47;24.20;;;8.50;;
77026;SDS011;65956;52.986;17.490;2024-01-11T02:59:13;24.00;;;8.20;;
77026;SDS011;65956;52.986;17.490;2024-01-11T03:01:39;24.00;;;7.70;;
77026;SDS011;65956;52.986;17.490;2024-01-11T03:04:06;22.00;;;7.80;;
77026;SDS011;65956;52.986;17.490;2024-01-11T03:06:32;19.90;;;8.00;;
77026;SDS011;65956;52.986;17.490;2024-01-11T03:08:58;15.70;;;6.60;;
77026;SDS011;65956;52.986;17.490;2024-01-11T03:11:24;16.40;;;6.80;;
77026;SDS011;65956;52.986;17.490;2024-01-11T03:13:50;23.60;;;8.40;;
77026;SDS011;65956;52.986;17.490;2024-01-11T03:16:16;22.90;;;8.20;;
77026;SDS011;65956;52.986;17.490;2024-01-11T03:18:42;23.10;;;9.40;;
77026;SDS011;65956;52.986;17.490;2024-01-11T03:21:09;22.70;;;7.80;;
77026;SDS011;65956;52.986;17.490;2024-01-11T03:23:35;21.00;;;8.00;;
77026;SDS011;65956;52.986;17.490;2024-01-11T03:26:01;18.30;;;7.40;;
77026;SDS011;65956;52.986;17.490;2024-01-11T03:28:27;17.10;;;7.40;;
77026;SDS011;65956;52.986;17.490;2024-01-11T03:30:53;19.10;;;7.30;;
77026;SDS011;65956;52.986;17.490;2024-01-11T03:33:19;26.80;;;9.60;;
77026;SDS011;65956;52.986;17.490;2024-01-11T03:35:45;18.40;;;7.00;;
77026;SDS011;65956;52.986;17.490;2024-01-11T03:38:11;23.10;;;8.50;;
77026;SDS011;65956;52.986;17.490;2024-01-11T03:40:37;17.70;;;6.80;;
77026;SDS011;65956;52.986;17.490;2024-01-11T03:43:04;19.10;;;9.20;;
77026;SDS011;65956;52.986;17.490;2024-01-11T03:45:30;17.10;;;7.40;;
77026;SDS011;65956;52.986;17.490;2024-01-11T03:47:56;15.50;;;6.80;;
77026;SDS011;65956;52.986;17.490;2024-01-11T03:50:22;20.50;;;9.20;;
77026;SDS011;65956;52.986;17.490;2024-01-11T03:52:48;19.30;;;7.60;;
77026;SDS011;65956;52.986;17.490;2024-01-11T03:55:14;18.80;;;7.50;;
77026;SDS011;65956;52.986;17.490;2024-01-11T03:57:40;17.10;;;6.90;;
77026;SDS011;65956;52.986;17.490;2024-01-11T04:00:06;18.70;;;7.50;;
77026;SDS011;65956;52.986;17.490;2024-01-11T04:02:33;20.00;;;7.50;;
77026;SDS011;65956;52.986;17.490;2024-01-11T04:04:59;23.80;;;7.80;;
77026;SDS011;65956;52.986;17.490;2024-01-11T04:07:26;20.20;;;8.80;;
77026;SDS011;65956;52.986;17.490;2024-01-11T04:09:52;17.50;;;7.50;;
77026;SDS011;65956;52.986;17.490;2024-01-11T04:12:18;15.90;;;7.60;;
77026;SDS011;65956;52.986;17.490;2024-01-11T04:14:44;17.90;;;7.60;;
77026;SDS011;65956;52.986;17.490;2024-01-11T04:17:10;18.80;;;8.50;;
77026;SDS011;65956;52.986;17.490;2024-01-11T04:19:36;18.30;;;7.90;;
77026;SDS011;65956;52.986;17.490;2024-01-11T04:22:02;21.90;;;8.90;;
77026;SDS011;65956;52.986;17.490;2024-01-11T04:24:28;17.70;;;8.00;;
77026;SDS011;65956;52.986;17.490;2024-01-11T04:26:55;19.20;;;8.10;;
77026;SDS011;65956;52.986;17.490;2024-01-11T04:29:21;21.50;;;8.20;;
77026;SDS011;65956;52.986;17.490;2024-01-11T04:31:47;21.80;;;8.50;;
77026;SDS011;65956;52.986;17.490;2024-01-11T04:34:13;23.70;;;8.70;;
77026;SDS011;65956;52.986;17.490;2024-01-11T04:36:39;17.20;;;7.80;;
77026;SDS011;65956;52.986;17.490;2024-01-11T04:39:05;14.60;;;6.90;;
77026;SDS011;65956;52.986;17.490;2024-01-11T04:41:34;20.30;;;7.80;;
77026;SDS011;65956;52.986;17.490;2024-01-11T04:44:02;19.70;;;7.80;;
77026;SDS011;65956;52.986;17.490;2024-01-11T04:46:28;18.80;;;8.40;;
77026;SDS011;65956;52.986;17.490;2024-01-11T04:48:55;19.10;;;7.50;;
77026;SDS011;65956;52.986;17.490;2024-01-11T04:51:21;17.30;;;7.50;;
77026;SDS011;65956;52.986;17.490;2024-01-11T04:53:47;17.30;;;7.60;;
77026;SDS011;65956;52.986;17.490;2024-01-11T04:56:14;19.70;;;8.30;;
77026;SDS011;65956;52.986;17.490;2024-01-11T04:58:42;18.20;;;7.50;;
77026;SDS011;65956;52.986;17.490;2024-01-11T05:01:16;18.50;;;8.70;;
77026;SDS011;65956;52.986;17.490;2024-01-11T05:03:43;17.30;;;7.40;;
77026;SDS011;65956;52.986;17.490;2024-01-11T05:06:17;21.80;;;8.70;;
77026;SDS011;65956;52.986;17.490;2024-01-11T05:08:45;18.10;;;7.70;;
77026;SDS011;65956;52.986;17.490;2024-01-11T05:11:16;17.20;;;6.90;;
77026;SDS011;65956;52.986;17.490;2024-01-11T05:13:43;16.80;;;7.60;;
77026;SDS011;65956;52.986;17.490;2024-01-11T05:18:51;21.00;;;8.60;;
77026;SDS011;65956;52.986;17.490;2024-01-11T05:21:18;15.50;;;7.50;;
77026;SDS011;65956;52.986;17.490;2024-01-11T05:23:45;17.10;;;7.80;;
77026;SDS011;65956;52.986;17.490;2024-01-11T05:26:12;17.90;;;8.40;;
77026;SDS011;65956;52.986;17.490;2024-01-11T05:28:40;17.60;;;8.70;;
77026;SDS011;65956;52.986;17.490;2024-01-11T05:31:10;16.10;;;7.70;;
77026;SDS011;65956;52.986;17.490;2024-01-11T05:33:37;16.30;;;7.70;;
77026;SDS011;65956;52.986;17.490;2024-01-11T05:36:04;20.00;;;8.80;;
77026;SDS011;65956;52.986;17.490;2024-01-11T05:38:31;16.60;;;7.90;;
77026;SDS011;65956;52.986;17.490;2024-01-11T05:40:58;18.00;;;7.60;;
77026;SDS011;65956;52.986;17.490;2024-01-11T05:43:24;15.70;;;7.10;;
77026;SDS011;65956;52.986;17.490;2024-01-11T05:45:50;17.30;;;7.90;;
77026;SDS011;65956;52.986;17.490;2024-01-11T05:48:17;18.60;;;8.70;;
77026;SDS011;65956;52.986;17.490;2024-01-11T05:50:44;19.60;;;8.80;;
77026;SDS011;65956;52.986;17.490;2024-01-11T05:53:10;17.90;;;8.20;;
77026;SDS011;65956;52.986;17.490;2024-01-11T05:55:38;21.50;;;7.80;;
77026;SDS011;65956;52.986;17.490;2024-01-11T05:58:05;15.60;;;8.40;;
77026;SDS011;65956;52.986;17.490;2024-01-11T06:00:31;17.10;;;7.30;;
77026;SDS011;65956;52.986;17.490;2024-01-11T06:02:57;21.40;;;9.00;;
77026;SDS011;65956;52.986;17.490;2024-01-11T06:05:24;21.00;;;9.10;;
77026;SDS011;65956;52.986;17.490;2024-01-11T06:07:51;18.10;;;8.10;;
77026;SDS011;65956;52.986;17.490;2024-01-11T06:10:17;18.60;;;8.50;;
77026;SDS011;65956;52.986;17.490;2024-01-11T06:12:43;20.70;;;8.50;;
77026;SDS011;65956;52.986;17.490;2024-01-11T06:15:09;20.30;;;9.20;;
77026;SDS011;65956;52.986;17.490;2024-01-11T06:17:35;19.70;;;8.40;;
77026;SDS011;65956;52.986;17.490;2024-01-11T06:20:02;23.80;;;10.60;;
77026;SDS011;65956;52.986;17.490;2024-01-11T06:22:29;19.20;;;8.60;;
77026;SDS011;65956;52.986;17.490;2024-01-11T06:24:55;22.10;;;9.80;;
77026;SDS011;65956;52.986;17.490;2024-01-11T06:27:21;17.90;;;8.40;;
77026;SDS011;65956;52.986;17.490;2024-01-11T06:29:47;20.50;;;8.50;;
77026;SDS011;65956;52.986;17.490;2024-01-11T06:32:13;23.80;;;10.10;;
77026;SDS011;65956;52.986;17.490;2024-01-11T06:34:39;23.00;;;11.00;;
77026;SDS011;65956;52.986;17.490;2024-01-11T06:37:11;18.50;;;9.40;;
77026;SDS011;65956;52.986;17.490;2024-01-11T06:39:38;19.60;;;9.00;;
77026;SDS011;65956;52.986;17.490;2024-01-11T06:42:04;22.70;;;9.70;;
77026;SDS011;65956;52.986;17.490;2024-01-11T06:44:30;19.90;;;9.20;;
77026;SDS011;65956;52.986;17.490;2024-01-11T06:46:56;21.10;;;9.50;;
77026;SDS011;65956;52.986;17.490;2024-01-11T06:49:23;22.20;;;10.50;;
77026;SDS011;65956;52.986;17.490;2024-01-11T06:51:49;20.50;;;9.50;;
77026;SDS011;65956;52.986;17.490;2024-01-11T06:54:15;18.40;;;9.40;;
77026;SDS011;65956;52.986;17.490;2024-01-11T06:56:41;21.70;;;11.20;;
77026;SDS011;65956;52.986;17.490;2024-01-11T06:59:07;21.10;;;10.00;;
77026;SDS011;65956;52.986;17.490;2024-01-11T07:01:33;21.10;;;8.80;;
77026;SDS011;65956;52.986;17.490;2024-01-11T07:03:59;21.10;;;9.40;;
77026;SDS011;65956;52.986;17.490;2024-01-11T07:06:25;19.50;;;8.20;;
77026;SDS011;65956;52.986;17.490;2024-01-11T07:08:52;19.20;;;8.50;;
77026;SDS011;65956;52.986;17.490;2024-01-11T07:11:18;18.60;;;8.80;;
77026;SDS011;65956;52.986;17.490;2024-01-11T07:13:44;17.60;;;8.50;;
77026;SDS011;65956;52.986;17.490;2024-01-11T07:16:10;19.70;;;8.50;;
77026;SDS011;65956;52.986;17.490;2024-01-11T07:18:36;19.30;;;8.90;;
77026;SDS011;65956;52.986;17.490;2024-01-11T07:21:02;17.20;;;8.10;;
77026;SDS011;65956;52.986;17.490;2024-01-11T07:23:29;19.40;;;9.10;;
77026;SDS011;65956;52.986;17.490;2024-01-11T07:25:55;154.80;;;52.70;;
77026;SDS011;65956;52.986;17.490;2024-01-11T07:28:21;101.80;;;38.00;;
77026;SDS011;65956;52.986;17.490;2024-01-11T07:30:51;46.50;;;18.80;;
77026;SDS011;65956;52.986;17.490;2024-01-11T07:33:19;50.30;;;19.20;;
77026;SDS011;65956;52.986;17.490;2024-01-11T07:35:47;38.90;;;18.50;;
77026;SDS011;65956;52.986;17.490;2024-01-11T07:38:14;24.00;;;11.90;;
77026;SDS011;65956;52.986;17.490;2024-01-11T07:40:40;22.80;;;10.60;;
77026;SDS011;65956;52.986;17.490;2024-01-11T07:43:06;25.50;;;11.50;;
77026;SDS011;65956;52.986;17.490;2024-01-11T07:45:32;22.90;;;11.40;;
77026;SDS011;65956;52.986;17.490;2024-01-11T07:47:58;24.70;;;12.30;;
77026;SDS011;65956;52.986;17.490;2024-01-11T07:50:25;25.10;;;11.50;;
77026;SDS011;65956;52.986;17.490;2024-01-11T07:52:51;26.20;;;12.80;;
77026;SDS011;65956;52.986;17.490;2024-01-11T07:55:17;22.80;;;10.70;;
77026;SDS011;65956;52.986;17.490;2024-01-11T07:57:44;46.60;;;23.00;;
77026;SDS011;65956;52.986;17.490;2024-01-11T08:00:10;78.10;;;31.80;;
77026;SDS011;65956;52.986;17.490;2024-01-11T08:02:39;24.50;;;11.70;;
77026;SDS011;65956;52.986;17.490;2024-01-11T08:05:05;23.20;;;11.30;;
77026;SDS011;65956;52.986;17.490;2024-01-11T08:07:32;21.20;;;10.60;;
77026;SDS011;65956;52.986;17.490;2024-01-11T08:09:58;18.10;;;8.40;;
77026;SDS011;65956;52.986;17.490;2024-01-11T08:12:24;21.90;;;10.70;;
77026;SDS011;65956;52.986;17.490;2024-01-11T08:14:50;20.80;;;9.90;;
77026;SDS011;65956;52.986;17.490;2024-01-11T08:17:16;25.30;;;12.00;;
77026;SDS011;65956;52.986;17.490;2024-01-11T08:19:42;20.20;;;11.00;;
77026;SDS011;65956;52.986;17.490;2024-01-11T08:22:09;23.30;;;11.80;;
77026;SDS011;65956;52.986;17.490;2024-01-11T08:24:36;55.00;;;36.00;;
77026;SDS011;65956;52.986;17.490;2024-01-11T08:27:04;52.50;;;33.50;;
77026;SDS011;65956;52.986;17.490;2024-01-11T08:29:31;40.70;;;24.50;;
77026;SDS011;65956;52.986;17.490;2024-01-11T08:31:58;54.50;;;27.60;;
77026;SDS011;65956;52.986;17.490;2024-01-11T08:34:24;47.70;;;19.30;;
77026;SDS011;65956;52.986;17.490;2024-01-11T08:36:52;27.30;;;12.00;;
77026;SDS011;65956;52.986;17.490;2024-01-11T08:39:18;31.30;;;15.20;;
77026;SDS011;65956;52.986;17.490;2024-01-11T08:41:45;25.80;;;13.90;;
77026;SDS011;65956;52.986;17.490;2024-01-11T08:44:11;20.30;;;9.80;;
77026;SDS011;65956;52.986;17.490;2024-01-11T08:46:37;23.50;;;12.20;;
77026;SDS011;65956;52.986;17.490;2024-01-11T08:49:03;19.40;;;10.20;;
77026;SDS011;65956;52.986;17.490;2024-01-11T08:51:29;28.30;;;14.40;;
77026;SDS011;65956;52.986;17.490;2024-01-11T08:53:58;26.60;;;13.30;;
77026;SDS011;65956;52.986;17.490;2024-01-11T08:56:24;32.30;;;17.90;;
77026;SDS011;65956;52.986;17.490;2024-01-11T08:58:50;25.90;;;11.80;;
77026;SDS011;65956;52.986;17.490;2024-01-11T09:01:16;26.30;;;12.50;;
77026;SDS011;65956;52.986;17.490;2024-01-11T09:03:48;28.60;;;15.90;;
77026;SDS011;65956;52.986;17.490;2024-01-11T09:06:14;36.50;;;18.50;;
77026;SDS011;65956;52.986;17.490;2024-01-11T09:08:40;45.00;;;21.90;;
77026;SDS011;65956;52.986;17.490;2024-01-11T09:13:37;28.30;;;14.60;;
77026;SDS011;65956;52.986;17.490;2024-01-11T09:16:03;36.10;;;18.10;;
77026;SDS011;65956;52.986;17.490;2024-01-11T09:18:30;33.40;;;18.30;;
77026;SDS011;65956;52.986;17.490;2024-01-11T09:20:56;30.30;;;16.00;;
77026;SDS011;65956;52.986;17.490;2024-01-11T09:23:22;47.40;;;17.40;;
77026;SDS011;65956;52.986;17.490;2024-01-11T09:25:49;152.20;;;45.40;;
77026;SDS011;65956;52.986;17.490;2024-01-11T09:28:15;118.00;;;36.40;;
77026;SDS011;65956;52.986;17.490;2024-01-11T09:30:41;24.70;;;12.70;;
77026;SDS011;65956;52.986;17.490;2024-01-11T09:33:07;41.20;;;17.50;;
77026;SDS011;65956;52.986;17.490;2024-01-11T09:35:33;34.00;;;13.50;;
77026;SDS011;65956;52.986;17.490;2024-01-11T09:37:59;92.70;;;28.00;;
77026;SDS011;65956;52.986;17.490;2024-01-11T09:40:26;23.30;;;11.60;;
77026;SDS011;65956;52.986;17.490;2024-01-11T09:42:53;21.40;;;12.00;;
77026;SDS011;65956;52.986;17.490;2024-01-11T09:45:20;32.20;;;15.30;;
77026;SDS011;65956;52.986;17.490;2024-01-11T09:47:46;24.50;;;11.60;;
77026;SDS011;65956;52.986;17.490;2024-01-11T09:50:16;36.90;;;18.20;;
77026;SDS011;65956;52.986;17.490;2024-01-11T09:52:47;79.00;;;28.50;;
77026;SDS011;65956;52.986;17.490;2024-01-11T09:55:15;28.00;;;14.50;;
77026;SDS011;65956;52.986;17.490;2024-01-11T09:57:45;19.00;;;10.70;;
77026;SDS011;65956;52.986;17.490;2024-01-11T10:00:13;30.90;;;16.30;;
77026;SDS011;65956;52.986;17.490;2024-01-11T10:02:45;27.90;;;14.90;;
77026;SDS011;65956;52.986;17.490;2024-01-11T10:05:12;28.60;;;17.30;;
77026;SDS011;65956;52.986;17.490;2024-01-11T10:07:41;32.30;;;15.90;;
77026;SDS011;65956;52.986;17.490;2024-01-11T10:10:08;22.90;;;12.70;;
77026;SDS011;65956;52.986;17.490;2024-01-11T10:12:38;45.80;;;20.20;;
77026;SDS011;65956;52.986;17.490;2024-01-11T10:15:04;21.60;;;10.60;;
77026;SDS011;65956;52.986;17.490;2024-01-11T10:17:42;17.60;;;9.60;;
77026;SDS011;65956;52.986;17.490;2024-01-11T10:20:12;18.50;;;8.30;;
77026;SDS011;65956;52.986;17.490;2024-01-11T10:22:43;24.60;;;12.60;;
77026;SDS011;65956;52.986;17.490;2024-01-11T10:25:12;24.10;;;13.00;;
77026;SDS011;65956;52.986;17.490;2024-01-11T10:27:40;26.40;;;16.00;;
77026;SDS011;65956;52.986;17.490;2024-01-11T10:30:10;27.80;;;13.00;;
77026;SDS011;65956;52.986;17.490;2024-01-11T10:32:39;27.70;;;13.30;;
77026;SDS011;65956;52.986;17.490;2024-01-11T10:35:05;29.50;;;15.20;;
77026;SDS011;65956;52.986;17.490;2024-01-11T10:37:32;26.60;;;13.40;;
77026;SDS011;65956;52.986;17.490;2024-01-11T10:40:02;20.10;;;10.10;;
77026;SDS011;65956;52.986;17.490;2024-01-11T10:42:35;20.20;;;8.90;;
77026;SDS011;65956;52.986;17.490;2024-01-11T10:45:03;20.50;;;10.80;;
77026;SDS011;65956;52.986;17.490;2024-01-11T10:47:36;16.60;;;9.20;;
77026;SDS011;65956;52.986;17.490;2024-01-11T10:50:04;20.40;;;11.30;;
77026;SDS011;65956;52.986;17.490;2024-01-11T10:52:36;16.50;;;8.30;;
77026;SDS011;65956;52.986;17.490;2024-01-11T10:55:06;14.20;;;7.70;;
77026;SDS011;65956;52.986;17.490;2024-01-11T10:57:33;23.80;;;10.80;;
77026;SDS011;65956;52.986;17.490;2024-01-11T11:00:00;24.20;;;11.00;;
77026;SDS011;65956;52.986;17.490;2024-01-11T11:02:29;23.60;;;11.90;;
77026;SDS011;65956;52.986;17.490;2024-01-11T11:04:55;16.10;;;9.10;;
77026;SDS011;65956;52.986;17.490;2024-01-11T11:07:23;18.20;;;9.50;;
77026;SDS011;65956;52.986;17.490;2024-01-11T11:09:50;16.00;;;8.20;;
77026;SDS011;65956;52.986;17.490;2024-01-11T11:12:18;21.30;;;11.20;;
77026;SDS011;65956;52.986;17.490;2024-01-11T11:14:45;27.40;;;15.40;;
77026;SDS011;65956;52.986;17.490;2024-01-11T11:17:14;25.60;;;13.50;;
77026;SDS011;65956;52.986;17.490;2024-01-11T11:19:41;20.80;;;10.00;;
77026;SDS011;65956;52.986;17.490;2024-01-11T11:22:08;22.10;;;11.10;;
77026;SDS011;65956;52.986;17.490;2024-01-11T11:24:34;25.70;;;14.30;;
77026;SDS011;65956;52.986;17.490;2024-01-11T11:27:01;20.50;;;11.70;;
77026;SDS011;65956;52.986;17.490;2024-01-11T11:29:29;26.60;;;14.30;;
77026;SDS011;65956;52.986;17.490;2024-01-11T11:31:55;27.50;;;12.80;;
77026;SDS011;65956;52.986;17.490;2024-01-11T11:37:39;23.20;;;12.30;;
77026;SDS011;65956;52.986;17.490;2024-01-11T11:40:09;21.90;;;12.70;;
77026;SDS011;65956;52.986;17.490;2024-01-11T11:42:39;32.60;;;18.20;;
77026;SDS011;65956;52.986;17.490;2024-01-11T11:45:09;23.80;;;12.50;;
77026;SDS011;65956;52.986;17.490;2024-01-11T11:47:37;20.80;;;11.00;;
77026;SDS011;65956;52.986;17.490;2024-01-11T11:50:04;30.00;;;16.20;;
77026;SDS011;65956;52.986;17.490;2024-01-11T11:52:32;32.20;;;17.40;;
77026;SDS011;65956;52.986;17.490;2024-01-11T11:55:03;43.70;;;25.50;;
77026;SDS011;65956;52.986;17.490;2024-01-11T11:57:33;26.50;;;15.10;;
77026;SDS011;65956;52.986;17.490;2024-01-11T12:00:02;27.50;;;15.60;;
77026;SDS011;65956;52.986;17.490;2024-01-11T12:02:37;23.50;;;11.40;;
77026;SDS011;65956;52.986;17.490;2024-01-11T12:05:04;25.20;;;13.70;;
77026;SDS011;65956;52.986;17.490;2024-01-11T12:07:30;31.10;;;17.30;;
77026;SDS011;65956;52.986;17.490;2024-01-11T12:09:57;30.60;;;15.30;;
77026;SDS011;65956;52.986;17.490;2024-01-11T12:12:23;19.30;;;10.00;;
77026;SDS011;65956;52.986;17.490;2024-01-11T12:14:50;21.80;;;12.00;;
77026;SDS011;65956;52.986;17.490;2024-01-11T12:17:16;25.50;;;12.10;;
77026;SDS011;65956;52.986;17.490;2024-01-11T12:19:42;16.80;;;10.30;;
77026;SDS011;65956;52.986;17.490;2024-01-11T12:22:08;16.90;;;9.80;;
77026;SDS011;65956;52.986;17.490;2024-01-11T12:24:35;32.00;;;17.90;;
77026;SDS011;65956;52.986;17.490;2024-01-11T12:27:01;18.00;;;10.00;;
77026;SDS011;65956;52.986;17.490;2024-01-11T12:29:30;17.20;;;9.30;;
77026;SDS011;65956;52.986;17.490;2024-01-11T12:31:57;14.60;;;8.60;;
77026;SDS011;65956;52.986;17.490;2024-01-11T12:34:26;21.20;;;11.30;;
77026;SDS011;65956;52.986;17.490;2024-01-11T12:36:54;25.90;;;15.80;;
77026;SDS011;65956;52.986;17.490;2024-01-11T12:39:21;25.30;;;13.50;;
77026;SDS011;65956;52.986;17.490;2024-01-11T12:41:51;14.20;;;8.50;;
77026;SDS011;65956;52.986;17.490;2024-01-11T12:44:23;17.40;;;9.80;;
77026;SDS011;65956;52.986;17.490;2024-01-11T12:46:53;18.80;;;10.50;;
77026;SDS011;65956;52.986;17.490;2024-01-11T12:49:19;15.50;;;7.80;;
77026;SDS011;65956;52.986;17.490;2024-01-11T12:51:45;15.30;;;8.30;;
77026;SDS011;65956;52.986;17.490;2024-01-11T12:54:12;17.10;;;9.20;;
77026;SDS011;65956;52.986;17.490;2024-01-11T12:56:40;21.20;;;11.50;;
77026;SDS011;65956;52.986;17.490;2024-01-11T12:59:08;22.20;;;10.00;;
77026;SDS011;65956;52.986;17.490;2024-01-11T13:01:37;19.90;;;8.20;;
77026;SDS011;65956;52.986;17.490;2024-01-11T13:04:04;19.70;;;10.10;;
77026;SDS011;65956;52.986;17.490;2024-01-11T13:06:31;27.50;;;12.60;;
77026;SDS011;65956;52.986;17.490;2024-01-11T13:08:58;20.10;;;11.50;;
77026;SDS011;65956;52.986;17.490;2024-01-11T13:11:24;25.30;;;14.60;;
77026;SDS011;65956;52.986;17.490;2024-01-11T13:13:50;21.80;;;10.50;;
77026;SDS011;65956;52.986;17.490;2024-01-11T13:16:17;23.10;;;11.60;;
77026;SDS011;65956;52.986;17.490;2024-01-11T13:18:47;20.00;;;11.20;;
77026;SDS011;65956;52.986;17.490;2024-01-11T13:21:13;15.60;;;9.00;;
77026;SDS011;65956;52.986;17.490;2024-01-11T13:23:40;21.40;;;11.20;;
77026;SDS011;65956;52.986;17.490;2024-01-11T13:26:07;22.40;;;12.10;;
77026;SDS011;65956;52.986;17.490;2024-01-11T13:28:33;20.40;;;11.50;;
77026;SDS011;65956;52.986;17.490;2024-01-11T13:30:59;23.20;;;11.50;;
77026;SDS011;65956;52.986;17.490;2024-01-11T13:33:27;27.40;;;13.20;;
77026;SDS011;65956;52.986;17.490;2024-01-11T13:35:54;35.80;;;16.50;;
77026;SDS011;65956;52.986;17.490;2024-01-11T13:38:20;36.60;;;16.10;;
77026;SDS011;65956;52.986;17.490;2024-01-11T13:40:46;27.10;;;11.50;;
77026;SDS011;65956;52.986;17.490;2024-01-11T13:43:12;33.10;;;16.00;;
77026;SDS011;65956;52.986;17.490;2024-01-11T13:45:39;23.60;;;11.50;;
77026;SDS011;65956;52.986;17.490;2024-01-11T13:48:06;27.80;;;10.90;;
77026;SDS011;65956;52.986;17.490;2024-01-11T13:50:33;31.70;;;15.10;;
77026;SDS011;65956;52.986;17.490;2024-01-11T13:52:59;31.90;;;15.20;;
77026;SDS011;65956;52.986;17.490;2024-01-11T13:55:26;29.10;;;13.10;;
77026;SDS011;65956;52.986;17.490;2024-01-11T13:57:52;32.20;;;16.10;;
77026;SDS011;65956;52.986;17.490;2024-01-11T14:00:27;25.80;;;11.40;;
77026;SDS011;65956;52.986;17.490;2024-01-11T14:02:54;26.90;;;13.20;;
77026;SDS011;65956;52.986;17.490;2024-01-11T14:05:21;38.40;;;16.40;;
77026;SDS011;65956;52.986;17.490;2024-01-11T14:07:47;28.60;;;14.20;;
77026;SDS011;65956;52.986;17.490;2024-01-11T14:39:09;17.10;;;8.60;;
77026;SDS011;65956;52.986;17.490;2024-01-11T14:41:39;23.50;;;11.70;;
77026;SDS011;65956;52.986;17.490;2024-01-11T14:44:05;23.40;;;13.80;;
77026;SDS011;65956;52.986;17.490;2024-01-11T14:46:32;23.00;;;12.80;;
77026;SDS011;65956;52.986;17.490;2024-01-11T14:48:58;25.70;;;14.90;;
77026;SDS011;65956;52.986;17.490;2024-01-11T14:51:26;20.10;;;10.40;;